sensor_id;sensor_type;location;lat;lon;timestamp;P1;durP1;ratioP1;P2;durP2;ratioP2
45314;SDS011;31051;51.540;5.852;2023-09-19T00:11:24;10.5;;;3.1;;
45314;SDS011;31051;51.540;5.852;2023-09-19T00:24:23;11.2;;;3.3;;
45314;SDS011;31051;51.540;5.852;2023-09-19T00:37:22;10.2;;;3.4;;
45314;SDS011;31051;51.540;5.852;2023-09-19T00:50:22;11.7;;;3.1;;
45314;SDS011;31051;51.540;5.852;2023-09-19T01:03:21;11.5;;;3.2;;
45314;SDS011;31051;51.540;5.852;2023-09-19T01:16:20;10.7;;;3.1;;
45314;SDS011;31051;51.540;5.852;2023-09-19T01:29:20;11.2;;;3.0;;
45314;SDS011;31051;51.540;5.852;2023-09-19T01:42:19;9.2;;;2.8;;
45314;SDS011;31051;51.540;5.852;2023-09-19T01:55:19;9.9;;;2.9;;
45314;SDS011;31051;51.540;5.852;2023-09-19T02:08:18;9.4;;;2.9;;
45314;SDS011;31051;51.540;5.852;2023-09-19T02:21:17;8.7;;;2.7;;
45314;SDS011;31051;51.540;5.852;2023-09-19T02:34:17;8.7;;;2.8;;
45314;SDS011;31051;51.540;5.852;2023-09-19T02:47:16;9.5;;;2.9;;
45314;SDS011;31051;51.540;5.852;2023-09-19T03:13:15;9.9;;;2.8;;
45314;SDS011;31051;51.540;5.852;2023-09-19T03:26:14;8.5;;;2.7;;
45314;SDS011;31051;51.540;5.852;2023-09-19T03:39:13;8.3;;;2.8;;
45314;SDS011;31051;51.540;5.852;2023-09-19T03:52:13;8.5;;;2.9;;
45314;SDS011;31051;51.540;5.852;2023-09-19T04:05:12;8.7;;;2.7;;
45314;SDS011;31051;51.540;5.852;2023-09-19T04:18:11;9.2;;;2.9;;
45314;SDS011;31051;51.540;5.852;2023-09-19T04:31:11;8.8;;;2.7;;
45314;SDS011;31051;51.540;5.852;2023-09-19T04:44:10;9.8;;;2.7;;
45314;SDS011;31051;51.540;5.852;2023-09-19T04:57:09;8.9;;;2.8;;
45314;SDS011;31051;51.540;5.852;2023-09-19T05:10:09;9.4;;;2.9;;
45314;SDS011;31051;51.540;5.852;2023-09-19T05:23:08;10.5;;;3.1;;
45314;SDS011;31051;51.540;5.852;2023-09-19T05:36:07;8.8;;;3.1;;
45314;SDS011;31051;51.540;5.852;2023-09-19T05:49:07;10.5;;;2.9;;
45314;SDS011;31051;51.540;5.852;2023-09-19T06:02:06;8.2;;;2.7;;
45314;SDS011;31051;51.540;5.852;2023-09-19T06:28:05;10.0;;;2.8;;
45314;SDS011;31051;51.540;5.852;2023-09-19T06:41:04;10.6;;;3.1;;
45314;SDS011;31051;51.540;5.852;2023-09-19T06:54:03;9.8;;;3.0;;
45314;SDS011;31051;51.540;5.852;2023-09-19T07:07:03;10.1;;;3.1;;
45314;SDS011;31051;51.540;5.852;2023-09-19T07:20:02;10.6;;;3.0;;
45314;SDS011;31051;51.540;5.852;2023-09-19T07:33:01;10.6;;;3.3;;
45314;SDS011;31051;51.540;5.852;2023-09-19T07:46:01;9.8;;;3.1;;
45314;SDS011;31051;51.540;5.852;2023-09-19T07:59:00;10.7;;;3.1;;
45314;SDS011;31051;51.540;5.852;2023-09-19T08:11:59;10.8;;;3.1;;
45314;SDS011;31051;51.540;5.852;2023-09-19T08:24:48;10.4;;;3.0;;
45314;SDS011;31051;51.540;5.852;2023-09-19T08:37:47;10.7;;;3.1;;
45314;SDS011;31051;51.540;5.852;2023-09-19T08:50:47;11.2;;;3.2;;
45314;SDS011;31051;51.540;5.852;2023-09-19T09:03:46;10.1;;;3.0;;
45314;SDS011;31051;51.540;5.852;2023-09-19T09:16:44;10.6;;;3.0;;
45314;SDS011;31051;51.540;5.852;2023-09-19T09:29:33;9.0;;;2.9;;
45314;SDS011;31051;51.540;5.852;2023-09-19T09:42:21;9.1;;;3.1;;
45314;SDS011;31051;51.540;5.852;2023-09-19T09:55:09;10.2;;;3.1;;
45314;SDS011;31051;51.540;5.852;2023-09-19T10:07:59;9.3;;;3.2;;
45314;SDS011;31051;51.540;5.852;2023-09-19T10:20:57;9.0;;;2.9;;
45314;SDS011;31051;51.540;5.852;2023-09-19T10:33:46;9.6;;;3.1;;
45314;SDS011;31051;51.540;5.852;2023-09-19T10:46:46;8.7;;;2.9;;
45314;SDS011;31051;51.540;5.852;2023-09-19T10:59:45;7.1;;;2.7;;
45314;SDS011;31051;51.540;5.852;2023-09-19T11:12:45;7.6;;;2.7;;
45314;SDS011;31051;51.540;5.852;2023-09-19T11:25:44;7.3;;;2.5;;
45314;SDS011;31051;51.540;5.852;2023-09-19T11:38:43;7.4;;;2.5;;
45314;SDS011;31051;51.540;5.852;2023-09-19T11:51:43;7.3;;;2.6;;
45314;SDS011;31051;51.540;5.852;2023-09-19T12:04:42;6.5;;;2.2;;
45314;SDS011;31051;51.540;5.852;2023-09-19T12:17:41;6.0;;;2.1;;
45314;SDS011;31051;51.540;5.852;2023-09-19T12:30:29;4.5;;;1.9;;
45314;SDS011;31051;51.540;5.852;2023-09-19T12:43:18;4.2;;;1.7;;
45314;SDS011;31051;51.540;5.852;2023-09-19T12:56:18;5.1;;;1.6;;
45314;SDS011;31051;51.540;5.852;2023-09-19T13:09:17;5.1;;;1.6;;
45314;SDS011;31051;51.540;5.852;2023-09-19T13:22:16;4.2;;;1.4;;
45314;SDS011;31051;51.540;5.852;2023-09-19T13:35:05;3.5;;;1.3;;
45314;SDS011;31051;51.540;5.852;2023-09-19T13:48:04;3.8;;;1.3;;
45314;SDS011;31051;51.540;5.852;2023-09-19T14:01:04;3.3;;;1.4;;
45314;SDS011;31051;51.540;5.852;2023-09-19T14:14:03;4.8;;;1.4;;
45314;SDS011;31051;51.540;5.852;2023-09-19T14:27:02;2.8;;;1.2;;
45314;SDS011;31051;51.540;5.852;2023-09-19T14:39:50;5.1;;;1.2;;
45314;SDS011;31051;51.540;5.852;2023-09-19T14:52:39;4.0;;;1.4;;
45314;SDS011;31051;51.540;5.852;2023-09-19T15:05:38;3.8;;;1.3;;
45314;SDS011;31051;51.540;5.852;2023-09-19T15:18:27;4.7;;;1.4;;
45314;SDS011;31051;51.540;5.852;2023-09-19T15:31:25;4.2;;;1.4;;
45314;SDS011;31051;51.540;5.852;2023-09-19T15:44:15;3.6;;;1.4;;
45314;SDS011;31051;51.540;5.852;2023-09-19T15:57:14;3.7;;;1.4;;
45314;SDS011;31051;51.540;5.852;2023-09-19T16:10:14;4.2;;;1.5;;
45314;SDS011;31051;51.540;5.852;2023-09-19T16:23:12;4.7;;;1.4;;
45314;SDS011;31051;51.540;5.852;2023-09-19T16:36:01;5.0;;;1.6;;
45314;SDS011;31051;51.540;5.852;2023-09-19T16:49:00;4.2;;;1.4;;
45314;SDS011;31051;51.540;5.852;2023-09-19T17:01:48;4.6;;;1.8;;
45314;SDS011;31051;51.540;5.852;2023-09-19T17:14:37;4.6;;;1.9;;
45314;SDS011;31051;51.540;5.852;2023-09-19T17:27:37;3.9;;;1.7;;
45314;SDS011;31051;51.540;5.852;2023-09-19T17:40:36;5.9;;;1.8;;
45314;SDS011;31051;51.540;5.852;2023-09-19T17:53:35;5.9;;;1.8;;
45314;SDS011;31051;51.540;5.852;2023-09-19T18:06:34;4.5;;;1.8;;
45314;SDS011;31051;51.540;5.852;2023-09-19T18:19:23;4.5;;;1.6;;
45314;SDS011;31051;51.540;5.852;2023-09-19T18:32:23;4.4;;;1.8;;
45314;SDS011;31051;51.540;5.852;2023-09-19T18:45:21;4.7;;;1.9;;
45314;SDS011;31051;51.540;5.852;2023-09-19T18:58:09;4.8;;;1.8;;
45314;SDS011;31051;51.540;5.852;2023-09-19T19:10:59;5.1;;;1.7;;
45314;SDS011;31051;51.540;5.852;2023-09-19T19:23:57;4.5;;;1.8;;
45314;SDS011;31051;51.540;5.852;2023-09-19T19:36:45;5.3;;;1.8;;
45314;SDS011;31051;51.540;5.852;2023-09-19T19:49:34;4.8;;;1.9;;
45314;SDS011;31051;51.540;5.852;2023-09-19T20:02:22;5.1;;;1.9;;
45314;SDS011;31051;51.540;5.852;2023-09-19T20:15:11;5.2;;;1.8;;
45314;SDS011;31051;51.540;5.852;2023-09-19T20:28:11;4.7;;;1.9;;
45314;SDS011;31051;51.540;5.852;2023-09-19T20:41:10;4.3;;;1.8;;
45314;SDS011;31051;51.540;5.852;2023-09-19T20:54:09;4.5;;;1.8;;
45314;SDS011;31051;51.540;5.852;2023-09-19T21:07:08;5.1;;;1.9;;
45314;SDS011;31051;51.540;5.852;2023-09-19T21:19:57;4.8;;;2.0;;
45314;SDS011;31051;51.540;5.852;2023-09-19T21:32:56;4.8;;;1.9;;
45314;SDS011;31051;51.540;5.852;2023-09-19T21:45:45;5.0;;;2.0;;
45314;SDS011;31051;51.540;5.852;2023-09-19T21:58:44;4.8;;;2.0;;
45314;SDS011;31051;51.540;5.852;2023-09-19T22:11:44;5.1;;;2.1;;
45314;SDS011;31051;51.540;5.852;2023-09-19T22:24:43;5.5;;;2.0;;
45314;SDS011;31051;51.540;5.852;2023-09-19T22:37:43;6.0;;;2.0;;
45314;SDS011;31051;51.540;5.852;2023-09-19T22:50:42;5.4;;;2.1;;
45314;SDS011;31051;51.540;5.852;2023-09-19T23:03:41;6.8;;;2.2;;
45314;SDS011;31051;51.540;5.852;2023-09-19T23:16:41;5.7;;;2.2;;
45314;SDS011;31051;51.540;5.852;2023-09-19T23:42:29;6.4;;;2.3;;
45314;SDS011;31051;51.540;5.852;2023-09-19T23:55:28;5.8;;;2.3;;
